Albert-Bray Airport


Codes: LFAQ/BYF
Name: Albert-Bray Airport
City: Albert/Bray
Country: France
Elevation: 364 ft.
Wikipedia:

Photos at Albert-Bray Airport


   Photos courtesy of SpottingLog. You can add your own sightings and photos by signing up for a free trial today.



No photos found.

Weather at Albert-Bray Airport


Time (UTC)DescriptionTempratureWindCloud coverageVisibilityPressureHumidity
26-Jun-2024 00:00Clear Sky18°C7 mph, 1%10000m1013hPa86%
26-Jun-2024 03:00Clear Sky17°C7 mph, NE1%10000m1012hPa90%
26-Jun-2024 06:00Clear Sky18°C7 mph, NE2%10000m1012hPa86%
26-Jun-2024 09:00Clear Sky23°C7 mph, NE1%10000m1012hPa70%
26-Jun-2024 12:00Clear Sky26°C2 mph, NE0%10000m1011hPa60%
26-Jun-2024 15:00Clear Sky27°C2 mph, NW5%10000m1010hPa55%
26-Jun-2024 18:00Scattered Clouds24°C7 mph, NW40%10000m1009hPa77%
26-Jun-2024 21:00Scattered Clouds20°C7 mph, N43%10000m1010hPa88%
27-Jun-2024 00:00Broken Clouds20°C0 mph, NE52%10000m1010hPa85%
27-Jun-2024 03:00Overcast Clouds19°C7 mph, NW86%10000m1009hPa88%
27-Jun-2024 06:00Overcast Clouds18°C4 mph, NW93%10000m1010hPa86%
27-Jun-2024 09:00Overcast Clouds23°C7 mph, SW94%10000m1010hPa70%
27-Jun-2024 12:00Overcast Clouds25°C11 mph, SW97%10000m1010hPa66%
27-Jun-2024 15:00Light Rain23°C11 mph, W100%10000m1011hPa76%
27-Jun-2024 18:00Overcast Clouds19°C11 mph, NW92%10000m1011hPa81%
27-Jun-2024 21:00Clear Sky14°C11 mph, W0%10000m1014hPa86%
28-Jun-2024 00:00Few Clouds11°C9 mph, W20%10000m1015hPa91%
28-Jun-2024 03:00Broken Clouds10°C7 mph, SW62%10000m1015hPa98%
28-Jun-2024 06:00Scattered Clouds13°C11 mph, W50%10000m1017hPa89%
28-Jun-2024 09:00Few Clouds17°C11 mph, W16%10000m1018hPa68%
28-Jun-2024 12:00Clear Sky20°C9 mph, W10%10000m1019hPa57%
28-Jun-2024 15:00Clear Sky20°C9 mph, W1%10000m1019hPa57%
28-Jun-2024 18:00Clear Sky18°C9 mph, NW9%10000m1019hPa75%
28-Jun-2024 21:00Few Clouds12°C4 mph, N22%10000m1020hPa84%
29-Jun-2024 00:00Scattered Clouds11°C4 mph, NE29%10000m1018hPa83%
29-Jun-2024 03:00Clear Sky11°C4 mph, NE8%10000m1017hPa89%
29-Jun-2024 06:00Scattered Clouds14°C4 mph, NE50%10000m1015hPa83%
29-Jun-2024 09:00Overcast Clouds19°C7 mph, NE99%10000m1013hPa70%
29-Jun-2024 12:00Light Rain20°C4 mph, E100%10000m1011hPa72%
29-Jun-2024 15:00Light Rain19°C4 mph, NE100%10000m1009hPa81%
29-Jun-2024 18:00Light Rain18°C7 mph, N100%10000m1007hPa88%
29-Jun-2024 21:00Light Rain14°C11 mph, N100%10000m1006hPa93%
30-Jun-2024 00:00Heavy Intensity Rain13°C9 mph, NW100%10000m1007hPa98%
30-Jun-2024 03:00Light Rain12°C11 mph, SW100%10000m1008hPa92%
30-Jun-2024 06:00Overcast Clouds13°C11 mph, SW100%10000m1009hPa92%
30-Jun-2024 09:00Overcast Clouds14°C11 mph, SW100%10000m1009hPa90%
30-Jun-2024 12:00Light Rain15°C16 mph, SW100%10000m1009hPa92%
30-Jun-2024 15:00Light Rain16°C16 mph, SW100%10000m1008hPa91%
30-Jun-2024 18:00Light Rain14°C16 mph, W99%10000m1009hPa91%
30-Jun-2024 21:00Overcast Clouds11°C11 mph, W97%10000m1011hPa91%